BWK weather

Bol Airport
Bra─Ź Island, Split-Dalmatia County, Croatia

Public forecast

Using degrees Celsius for public forecast. Weather courtesy of forecast.io.

Current aviation weather report (METAR) for Bol Airport

Report is more than 6 hours old.

Retrieved 2020/05/27 07:00 UTC (4 days ago):

LDSB 270700Z 03007KT 350V070 9999 FEW040 14/04 Q1025

Aviation forecast (TAF) for Bol Airport

Forecast is more than 12 hours old.

Retrieved 2020/05/27 08:09 UTC (3 days ago):

TAF TAF LDSB 270705Z 2708/2806 03010KT CAVOK TX23/2713Z TN14/2804Z